x

South Bass Island, Oh (sbio1) Weather Station

5:00pm - Tue 25th Apr 2017 All times are CDT. -5 hours from GMT.

  • Wind
    15mph, 20mph gusts
  • Air Temp 52°f
  • Sea Pressure 1007.1mb
  • South Bass Island, Oh
  • South Bass Island, Oh

More Historic Weather Station data

Upgrade to MSW Pro to gain access to the past 30 days of data for over 8000 Wavebouys and Weather Stations around the globe.

Join Pro

Comparision Forecast

View Surf forecast
   
Tue 04/25 5:00pm 15 20 mph 1007.1mb 52f
4:00pm 16 20 mph 1007.3mb 54f
3:00pm 14 17 mph 1007.7mb 55f
2:00pm 14 17 mph 1008.4mb 55f
1:00pm 11 14 mph 1008.9mb 56f
12:00pm 7 10 mph 1009.7mb 59f
11:00am 8 10 mph 1010.9mb 54f
10:00am 6 10 mph 1011.1mb 55f
9:00am 10 15 mph 1011.4mb 52f
8:00am 9 13 mph 1011.7mb 51f
7:00am 8 10 mph 1011.5mb 51f
6:00am 8 9 mph 1011.4mb 51f
5:00am 7 8 mph 1011mb 52f
4:00am 7 8 mph 1010.7mb 51f
3:00am 11 13 mph 1010.6mb 52f
2:00am 10 11 mph 1011mb 51f
1:00am 14 18 mph 1011.5mb 51f
12:00am 18 21 mph 1011.8mb 52f
Mon 04/24 11:00pm 13 17 mph 1012.5mb 52f
10:00pm 14 17 mph 1012.5mb 51f
9:00pm 15 21 mph 1012.7mb 51f
8:00pm 16 24 mph 1012.4mb 51f
7:00pm 17 26 mph 1012.5mb 51f
6:00pm 15 24 mph 1012.9mb 52f
5:00pm 15 21 mph 1013.4mb 52f
4:00pm 14 22 mph 1013.9mb 53f
3:00pm 15 20 mph 1014.9mb 52f
2:00pm 17 24 mph 1015.6mb 51f
1:00pm 15 24 mph 1016mb 51f
12:00pm 17 25 mph 1016.9mb 51f
11:00am 20 23 mph 1017.1mb 51f
10:00am 10 16 mph 1017.6mb 50f
9:00am 13 18 mph 1018mb 51f
8:00am 11 18 mph 1018mb 53f
7:00am 7 14 mph 1017.6mb 49f
6:00am 9 14 mph 1017.3mb 46f
5:00am 6 10 mph 1017.3mb 47f
4:00am 7 11 mph 1017.2mb 48f
3:00am 10 13 mph 1017.1mb 48f
2:00am 9 11 mph 1017.3mb 50f
1:00am 7 9 mph 1017.6mb 50f
12:00am 7 8 mph 1017.9mb 50f
Sun 04/23 11:00pm 9
mph
1017.9mb 51f
10:00pm 8
mph
1017.8mb 52f
9:00pm 9
mph
1017.7mb 53f
8:00pm 13
mph
1017.6mb 53f
7:00pm 7
mph
1017.2mb 54f
6:00pm 7 10 mph 1017.4mb 60f
5:00pm 6 8 mph 1017.6mb 59f
4:00pm 5 10 mph 1017.7mb 60f
3:00pm 6 8 mph 1018.3mb 57f
2:00pm 5 7 mph 1018.8mb 57f
1:00pm 7
mph
1019mb 54f
12:00pm 5 6 mph 1019.6mb 54f
11:00am 7 9 mph 1020.2mb 51f
10:00am 3 5 mph 1020.1mb 51f
9:00am 3 6 mph 1020.4mb 50f
8:00am 7 8 mph 1021.1mb 48f
7:00am  -  2 mph 1021mb 47f
6:00am 3
mph
1020.4mb 46f
5:00am 2 3 mph 1019.8mb 46f
4:00am 8 10 mph 1019.3mb 47f
3:00am 8 10 mph 1019.3mb 48f
2:00am 7 8 mph 1019.9mb 46f
1:00am 5 7 mph 1020.5mb 47f
12:00am 6 10 mph 1020.7mb 48f
Sat 04/22 11:00pm 7 11 mph 1020.7mb 48f
10:00pm 7 8 mph 1020.7mb 49f
9:00pm 6 7 mph 1020.3mb 49f
8:00pm 5 7 mph 1019.9mb 49f
7:00pm 2 5 mph 1019.7mb 50f
6:00pm 6 7 mph 1019.6mb 51f
5:00pm 6 9 mph 1019.7mb 52f
4:00pm 7 8 mph 1020mb 50f
3:00pm 6 8 mph 1020.5mb 49f
2:00pm 7 11 mph 1020.8mb 50f
1:00pm 7 15 mph 1021mb 50f
12:00pm 14 17 mph 1020.7mb 49f
11:00am 10 16 mph 1020.9mb 47f
10:00am 5 8 mph 1020.6mb 47f
9:00am 5 9 mph 1020.3mb 46f
8:00am 7 11 mph 1020.7mb 46f
7:00am 5 9 mph 1020.5mb 45f
6:00am 8 10 mph 1019.8mb 44f
5:00am 9 14 mph 1018.5mb 44f
4:00am 9 11 mph 1018.6mb 44f
3:00am 9 13 mph 1019.1mb 45f
2:00am 6 10 mph 1018.8mb 45f
1:00am 7 13 mph 1019mb 46f
12:00am 9 17 mph 1018.7mb 48f